Archival Weather

Fayette Rgnl Air Cntr Arp

Fayette Rgnl Air Cntr Arp, Texas (K3T5)

Report from: Thursday, September 22, 2022 9:15 AM CDT
Current time: Friday, February 3, 2023 11:41 PM CST

Current weather
Weather history
Weather forecast

Temperature25.6°C (78.1°F)
Dew point21.5°C (70.7°F)
Winds 4 kts (2.1 m/s, 4.6 mph) Northwest (320°)
Visibility10 mi. (16.1 km)
Clouds Sky clear
Altimeter30.01 in.Hg (1016 mB)
Relative humidity78 %
Density altitude1,471 ft. (448 m)
Remarks Fully automated report
Automated weather observing station with precipitation discriminator
Flight conditions Visual Meteorological Conditions
Raw dataK3T5 221415Z AUTO 32004KT 10SM CLR 26/22 A3001 RMK AO2 T02560215
An unhandled exception has occurred. See browser dev tools for details. Reload 🗙